Time;durP1;ratioP1;P1;durP2;ratioP2;P2;SDS_P1;SDS_P2;PMS_P1;PMS_P2;Temp;Humidity;BMP_temperature;BMP_pressure;BME280_temperature;BME280_humidity;BME280_pressure;Samples;Min_cycle;Max_cycle;Signal;HPM_P1;HPM_P2
2023/03/01 00:00:13;;;;;;;22.50;10.00;;;;;;;-3.87;100.00;101428.33;107555;1278;25237;-73
2023/03/01 00:02:42;;;;;;;;;;;;;;;-3.88;100.00;101422.88;107521;1278;22499;-74
2023/03/01 00:05:12;;;;;;;21.70;9.10;;;;;;;-3.89;100.00;101413.41;107524;1278;22529;-73
2023/03/01 00:07:41;;;;;;;25.70;11.20;;;;;;;-3.91;100.00;101406.60;106807;1278;1002998;-75
2023/03/01 00:10:11;;;;;;;25.20;10.30;;;;;;;-3.92;100.00;101397.27;107522;1278;26515;-74
2023/03/01 00:12:41;;;;;;;23.60;10.50;;;;;;;-3.91;100.00;101393.02;106676;1278;1003634;-73
2023/03/01 00:15:09;;;;;;;32.70;13.30;;;;;;;-3.91;100.00;101392.66;107304;1278;22521;-74
2023/03/01 00:17:39;;;;;;;27.70;12.80;;;;;;;-3.92;100.00;101390.41;107433;1278;26738;-74
2023/03/01 00:20:09;;;;;;;28.80;11.90;;;;;;;-3.92;100.00;101393.04;107344;1278;25243;-74
2023/03/01 00:22:39;;;;;;;24.20;11.00;;;;;;;-3.91;100.00;101386.14;107453;1277;25578;-73
2023/03/01 00:25:08;;;;;;;26.90;11.90;;;;;;;-3.92;100.00;101381.09;106637;1278;1003032;-74
2023/03/01 00:27:36;;;;;;;26.90;11.90;;;;;;;-3.94;100.00;101381.31;107359;1278;24222;-74
2023/03/01 00:30:06;;;;;;;23.90;10.60;;;;;;;-3.96;100.00;101383.48;107471;1278;26746;-74
2023/03/01 00:32:35;;;;;;;29.00;11.70;;;;;;;-3.99;100.00;101371.96;107570;1278;24314;-73
2023/03/01 00:35:03;;;;;;;25.00;11.50;;;;;;;-4.01;100.00;101372.35;107428;1278;23571;-74
2023/03/01 00:37:32;;;;;;;24.30;11.80;;;;;;;-4.01;100.00;101370.41;107214;1276;247845;-73
2023/03/01 00:40:00;;;;;;;30.60;12.50;;;;;;;-4.02;100.00;101372.39;107528;1254;22772;-74
2023/03/01 00:42:31;;;;;;;25.00;11.90;;;;;;;-4.02;100.00;101374.48;106827;1276;1003352;-73
2023/03/01 00:45:00;;;;;;;26.00;12.10;;;;;;;-4.03;100.00;101371.17;107573;1276;25418;-73
2023/03/01 00:47:29;;;;;;;25.70;12.50;;;;;;;-4.04;100.00;101372.63;107648;1276;25430;-74
2023/03/01 00:49:57;;;;;;;27.70;11.90;;;;;;;-4.07;100.00;101371.13;106844;1276;1003296;-73
2023/03/01 00:52:28;;;;;;;23.80;11.30;;;;;;;-4.08;100.00;101368.33;106755;1276;1003169;-72
2023/03/01 00:54:57;;;;;;;28.70;12.20;;;;;;;-4.11;100.00;101370.00;106736;1276;1003072;-73
2023/03/01 00:57:26;;;;;;;33.40;16.10;;;;;;;-4.13;100.00;101364.78;107463;1278;26657;-72
2023/03/01 00:59:54;;;;;;;31.50;14.80;;;;;;;-4.13;100.00;101352.11;107379;1277;22547;-73
2023/03/01 01:02:23;;;;;;;29.00;13.70;;;;;;;-4.13;100.00;101352.80;106857;1278;1003466;-73
2023/03/01 01:04:51;;;;;;;33.10;14.90;;;;;;;-4.13;100.00;101356.50;106746;1278;1003670;-73
2023/03/01 01:07:20;;;;;;;28.90;13.70;;;;;;;-4.14;100.00;101357.23;106586;1278;1002856;-75
2023/03/01 01:09:49;;;;;;;31.90;15.20;;;;;;;-4.14;100.00;101351.77;107452;1278;22475;-74
2023/03/01 01:12:21;;;;;;;32.60;13.60;;;;;;;-4.16;100.00;101348.84;107522;1278;25201;-73
2023/03/01 01:14:49;;;;;;;33.80;14.00;;;;;;;-4.19;100.00;101344.17;107344;1278;22705;-73
2023/03/01 01:17:17;;;;;;;39.10;14.80;;;;;;;-4.21;100.00;101344.39;106505;1278;1002351;-73
2023/03/01 01:19:46;;;;;;;33.40;15.10;;;;;;;-4.22;100.00;101342.86;107394;1278;24170;-73
2023/03/01 01:22:14;;;;;;;29.10;14.20;;;;;;;-4.23;100.00;101341.48;107246;1278;22629;-73
2023/03/01 01:24:44;;;;;;;35.40;14.90;;;;;;;-4.25;100.00;101339.07;107550;1278;25451;-74
2023/03/01 01:27:13;;;;;;;33.90;16.40;;;;;;;-4.26;100.00;101337.33;106479;1278;1003052;-74
2023/03/01 01:29:41;;;;;;;30.20;13.90;;;;;;;-4.27;100.00;101334.71;106931;1278;23952;-72
2023/03/01 01:32:10;;;;;;;29.70;13.00;;;;;;;-4.27;100.00;101334.38;107044;1278;22539;-72
2023/03/01 01:34:39;;;;;;;35.10;15.50;;;;;;;-4.27;100.00;101335.98;107110;1278;22525;-74
2023/03/01 01:37:07;;;;;;;33.90;15.20;;;;;;;-4.27;100.00;101338.95;107459;1276;22777;-73
2023/03/01 01:39:37;;;;;;;34.80;15.90;;;;;;;-4.28;100.00;101340.59;107464;1276;25464;-72
2023/03/01 01:42:06;;;;;;;31.10;15.20;;;;;;;-4.28;100.00;101345.69;106589;1276;1005139;-73
2023/03/01 01:44:35;;;;;;;33.80;16.20;;;;;;;-4.28;100.00;101345.33;107324;1276;23942;-73
2023/03/01 01:47:17;;;;;;;32.40;13.20;;;;;;;-4.28;100.00;101346.05;107420;1276;23814;-73
2023/03/01 01:49:55;;;;;;;26.40;12.80;;;;;;;-4.26;100.00;101342.64;106771;1276;1003081;-73
2023/03/01 01:52:35;;;;;;;25.40;11.70;;;;;;;-4.27;100.00;101341.77;106635;1276;1003065;-72
2023/03/01 01:55:06;;;;;;;26.10;12.90;;;;;;;-4.29;100.00;101340.77;106641;1276;1003572;-73
2023/03/01 01:57:43;;;;;;;24.50;11.10;;;;;;;-4.29;100.00;101340.41;106629;1278;1002550;-74
2023/03/01 02:00:21;;;;;;;28.90;12.20;;;;;;;-4.28;100.00;101340.74;107409;1277;22465;-73
2023/03/01 02:02:54;;;;;;;23.90;10.70;;;;;;;-4.28;100.00;101342.35;106652;1278;1003378;-73
2023/03/01 02:05:55;;;;;;;27.60;11.90;;;;;;;-4.29;100.00;101338.48;107041;1278;23970;-73
2023/03/01 02:08:26;;;;;;;28.70;11.90;;;;;;;-4.30;100.00;101327.41;107435;1278;25919;-73
2023/03/01 02:11:04;;;;;;;24.30;10.40;;;;;;;-4.29;100.00;101332.86;106637;1278;1002969;-72
2023/03/01 02:13:38;;;;;;;25.50;10.90;;;;;;;-4.30;100.00;101334.45;107376;1278;23943;-73
2023/03/01 02:16:12;;;;;;;22.80;11.00;;;;;;;-4.31;100.00;101333.06;107255;1278;25511;-72
2023/03/01 02:18:41;;;;;;;24.90;12.00;;;;;;;-4.30;100.00;101333.56;106655;1277;1002979;-71
2023/03/01 02:21:20;;;;;;;22.90;10.00;;;;;;;-4.28;100.00;101333.33;107361;1278;28020;-73
2023/03/01 02:23:55;;;;;;;21.80;9.70;;;;;;;-4.26;100.00;101325.88;107357;1278;23712;-74
2023/03/01 02:26:52;;;;;;;23.60;10.40;;;;;;;-4.25;100.00;101323.21;107187;1278;25527;-73
2023/03/01 02:29:22;;;;;;;21.00;10.00;;;;;;;-4.25;100.00;101321.10;106619;1278;1002837;-73
2023/03/01 02:31:51;;;;;;;22.60;10.40;;;;;;;-4.26;100.00;101320.42;106334;1278;1003600;-72
2023/03/01 02:34:25;;;;;;;27.10;11.40;;;;;;;-4.28;100.00;101323.48;106458;1278;1003698;-71
2023/03/01 02:36:57;;;;;;;24.40;10.70;;;;;;;-4.31;100.00;101328.67;106420;1276;1003113;-73
2023/03/01 02:39:28;;;;;;;24.70;10.00;;;;;;;-4.34;100.00;101318.55;106715;1276;1003504;-71
2023/03/01 02:41:58;;;;;;;26.00;11.60;;;;;;;-4.35;100.00;101316.31;106650;1276;1003115;-73
2023/03/01 02:44:28;;;;;;;25.30;10.80;;;;;;;-4.36;100.00;101315.29;107189;1276;25471;-74
2023/03/01 02:46:57;;;;;;;28.20;11.30;;;;;;;-4.38;100.00;101311.45;107455;1276;23170;-75
2023/03/01 02:49:28;;;;;;;24.10;11.30;;;;;;;-4.40;100.00;101305.88;107224;1276;25427;-73
2023/03/01 02:52:16;;;;;;;24.00;11.90;;;;;;;-4.43;100.00;101304.19;107431;1276;24125;-73
2023/03/01 02:54:47;;;;;;;31.40;13.70;;;;;;;-4.46;100.00;101307.08;106650;1276;1003591;-73
2023/03/01 02:57:16;;;;;;;28.20;15.00;;;;;;;-4.49;100.00;101301.73;106740;1276;1005851;-74
2023/03/01 02:59:45;;;;;;;30.20;14.50;;;;;;;-4.52;100.00;101294.42;106575;1276;1003403;-73
2023/03/01 03:02:36;;;;;;;34.50;14.80;;;;;;;-4.57;100.00;101290.34;107461;1276;22595;-73
2023/03/01 03:05:20;;;;;;;27.80;14.20;;;;;;;-4.62;100.00;101288.19;107493;1276;22517;-73
2023/03/01 03:07:52;;;;;;;24.00;10.20;;;;;;;-4.67;100.00;101283.77;106579;1276;1004773;-73
2023/03/01 03:10:24;;;;;;;25.10;10.80;;;;;;;-4.72;100.00;101281.27;107435;1276;22531;-72
2023/03/01 03:12:59;;;;;;;22.90;9.60;;;;;;;-4.76;100.00;101275.77;106628;1276;1016420;-72
2023/03/01 03:15:28;;;;;;;20.20;8.10;;;;;;;-4.81;100.00;101273.77;107536;1276;24251;-73
2023/03/01 03:17:58;;;;;;;19.80;8.80;;;;;;;-4.84;100.00;101276.32;107387;1276;22854;-73
2023/03/01 03:20:28;;;;;;;21.00;8.70;;;;;;;-4.86;100.00;101269.88;106781;1276;1002988;-74
2023/03/01 03:22:58;;;;;;;22.70;8.30;;;;;;;-4.87;100.00;101270.27;106748;1276;1002577;-72
2023/03/01 03:25:28;;;;;;;20.30;9.00;;;;;;;-4.88;100.00;101263.42;106769;1276;1002851;-72
2023/03/01 03:27:57;;;;;;;24.40;8.90;;;;;;;-4.88;100.00;101264.99;107474;1276;25439;-72
2023/03/01 03:30:28;;;;;;;17.30;7.70;;;;;;;-4.87;100.00;101266.39;106821;1270;1002600;-73
2023/03/01 03:32:58;;;;;;;21.10;9.10;;;;;;;-4.87;100.00;101264.98;107436;1276;22505;-76
2023/03/01 03:35:29;;;;;;;20.50;8.00;;;;;;;-4.87;100.00;101262.53;107462;1276;25252;-72
2023/03/01 03:38:02;;;;;;;23.30;10.20;;;;;;;-4.88;100.00;101261.65;106734;1277;1002925;-73
2023/03/01 03:40:39;;;;;;;21.60;9.20;;;;;;;-4.89;100.00;101249.90;106694;1277;1003795;-73
2023/03/01 03:43:14;;;;;;;22.20;9.90;;;;;;;-4.92;100.00;101245.06;107563;1278;24084;-73
2023/03/01 03:45:47;;;;;;;22.30;8.80;;;;;;;-4.93;100.00;101236.65;107602;1277;22534;-72
2023/03/01 03:48:16;;;;;;;20.20;9.20;;;;;;;-4.95;100.00;101231.61;107638;1278;23588;-74
2023/03/01 03:50:50;;;;;;;18.00;8.50;;;;;;;-4.97;100.00;101220.40;106908;1278;1003707;-72
2023/03/01 03:53:20;;;;;;;20.30;8.60;;;;;;;-4.99;100.00;101213.60;106630;1278;1002879;-73
2023/03/01 03:55:51;;;;;;;21.30;8.80;;;;;;;-5.02;100.00;101218.42;107453;1278;22819;-73
2023/03/01 03:58:21;;;;;;;19.70;8.00;;;;;;;-5.02;100.00;101214.77;107498;1278;22586;-72
2023/03/01 04:00:58;;;;;;;16.70;7.90;;;;;;;-5.03;100.00;101215.13;107507;1277;25427;-73
2023/03/01 04:03:28;;;;;;;17.30;7.90;;;;;;;-5.04;100.00;101213.20;107345;1278;25622;-72
2023/03/01 04:05:59;;;;;;;19.20;7.60;;;;;;;-5.05;100.00;101206.54;107414;1278;25320;-73
2023/03/01 04:08:28;;;;;;;17.40;7.20;;;;;;;-5.06;100.00;101212.05;107379;1278;22532;-73
2023/03/01 04:11:00;;;;;;;19.10;7.70;;;;;;;-5.06;100.00;101204.83;107414;1278;24330;-72
2023/03/01 04:13:34;;;;;;;19.30;8.00;;;;;;;-5.05;100.00;101194.95;107462;1278;25428;-73
2023/03/01 04:16:03;;;;;;;17.40;8.40;;;;;;;-5.06;100.00;101185.13;107473;1277;26506;-73
2023/03/01 04:18:31;;;;;;;16.10;8.00;;;;;;;-5.06;100.00;101174.05;107477;1278;22551;-72
2023/03/01 04:21:00;;;;;;;17.10;6.90;;;;;;;-5.07;100.00;101170.23;107430;1278;23973;-73
2023/03/01 04:23:29;;;;;;;19.30;8.30;;;;;;;-5.08;100.00;101169.73;107412;1277;25553;-74
2023/03/01 04:25:58;;;;;;;16.40;7.30;;;;;;;-5.09;100.00;101172.20;107528;1278;25575;-73
2023/03/01 04:28:33;;;;;;;14.30;7.10;;;;;;;-5.09;100.00;101176.80;107613;1277;25514;-72
2023/03/01 04:31:13;;;;;;;15.90;7.20;;;;;;;-5.10;100.00;101174.01;107567;1278;22521;-73
2023/03/01 04:33:53;;;;;;;15.10;6.70;;;;;;;-5.10;100.00;101163.07;107420;1278;22518;-71
2023/03/01 04:36:26;;;;;;;15.90;7.10;;;;;;;-5.09;100.00;101172.74;107272;1254;25505;-73
2023/03/01 04:38:56;;;;;;;16.00;7.30;;;;;;;-5.09;100.00;101171.86;107378;1276;22598;-74
2023/03/01 04:41:26;;;;;;;16.70;7.50;;;;;;;-5.07;100.00;101178.66;107326;1277;26501;-72
2023/03/01 04:43:59;;;;;;;16.40;7.40;;;;;;;-5.05;100.00;101180.34;107489;1278;25422;-74
2023/03/01 04:46:28;;;;;;;13.50;6.50;;;;;;;-5.03;100.00;101183.45;106730;1278;1002381;-73
2023/03/01 04:48:58;;;;;;;15.90;7.40;;;;;;;-5.01;100.00;101190.06;107414;1278;24327;-73
2023/03/01 04:51:27;;;;;;;18.30;7.20;;;;;;;-4.98;100.00;101184.38;107352;1278;26694;-72
2023/03/01 04:54:00;;;;;;;18.40;6.90;;;;;;;-4.96;100.00;101177.10;107346;1278;25303;-74
2023/03/01 04:56:30;;;;;;;20.80;8.20;;;;;;;-4.92;100.00;101167.69;107366;1278;23990;-73
2023/03/01 04:59:00;;;;;;;15.60;6.70;;;;;;;-4.88;100.00;101166.51;106341;1280;1003808;-73
2023/03/01 05:01:28;;;;;;;16.70;7.10;;;;;;;-4.85;100.00;101178.71;106254;1279;1003610;-72
2023/03/01 05:04:02;;;;;;;16.00;7.10;;;;;;;-4.79;100.00;101181.00;106368;1279;1002952;-72
2023/03/01 05:06:32;;;;;;;15.60;6.90;;;;;;;-4.71;100.00;101179.20;106356;1279;1002463;-73
2023/03/01 05:09:03;;;;;;;19.80;8.20;;;;;;;-4.64;100.00;101180.23;106275;1279;1003253;-73
2023/03/01 05:11:35;;;;;;;19.80;8.20;;;;;;;-4.54;100.00;101182.02;106267;1280;1003329;-73
2023/03/01 05:14:05;;;;;;;17.60;7.30;;;;;;;-4.45;100.00;101190.55;106581;1276;1003905;-72
2023/03/01 05:16:34;;;;;;;16.10;7.40;;;;;;;-4.35;100.00;101199.40;106506;1278;1003818;-71
2023/03/01 05:19:11;;;;;;;15.80;7.10;;;;;;;-4.27;100.00;101203.55;106392;1279;1003043;-73
2023/03/01 05:22:01;;;;;;;15.70;7.20;;;;;;;-4.21;100.00;101204.76;107356;1278;24367;-74
2023/03/01 05:24:32;;;;;;;16.50;6.90;;;;;;;-4.13;100.00;101202.59;107351;1278;23870;-73
2023/03/01 05:27:01;;;;;;;17.30;7.00;;;;;;;-4.07;100.00;101208.73;107067;1279;22513;-72
2023/03/01 05:29:35;;;;;;;18.00;7.70;;;;;;;-4.03;100.00;101208.58;107191;1279;26508;-72
2023/03/01 05:32:04;;;;;;;17.90;7.80;;;;;;;-3.99;100.00;101208.29;107256;1279;25380;-73
2023/03/01 05:34:35;;;;;;;23.20;10.00;;;;;;;-3.96;100.00;101201.16;107244;1279;26513;-72
2023/03/01 05:37:04;;;;;;;19.20;8.80;;;;;;;-3.91;100.00;101194.83;107179;1278;23812;-72
2023/03/01 05:39:32;;;;;;;22.10;10.50;;;;;;;-3.87;100.00;101197.52;106511;1278;1003060;-74
2023/03/01 05:42:01;;;;;;;19.10;8.30;;;;;;;-3.81;100.00;101195.91;107363;1278;25274;-72
2023/03/01 05:44:30;;;;;;;18.90;8.60;;;;;;;-3.75;100.00;101185.52;107573;1279;25987;-72
2023/03/01 05:46:59;;;;;;;19.30;9.20;;;;;;;-3.69;100.00;101188.82;107501;1278;22757;-74
2023/03/01 05:49:28;;;;;;;16.90;8.60;;;;;;;-3.62;100.00;101187.87;107229;1278;26522;-75
2023/03/01 05:51:57;;;;;;;23.10;10.20;;;;;;;-3.55;100.00;101183.77;107492;1278;22465;-73
2023/03/01 05:54:26;;;;;;;16.90;8.20;;;;;;;-3.49;100.00;101179.33;107646;1278;25427;-72
2023/03/01 05:56:54;;;;;;;15.20;7.40;;;;;;;-3.41;100.00;101181.86;107526;1278;22537;-73
2023/03/01 05:59:23;;;;;;;15.50;7.80;;;;;;;-3.35;100.00;101185.70;107599;1277;26555;-73
2023/03/01 06:01:53;;;;;;;18.50;8.30;;;;;;;-3.30;100.00;101186.94;107626;1277;23751;-71
2023/03/01 06:04:22;;;;;;;18.10;8.40;;;;;;;-3.20;100.00;101194.54;106589;1263;1003351;-73
2023/03/01 06:06:51;;;;;;;19.20;8.20;;;;;;;-3.13;100.00;101193.04;107523;1277;24199;-72
2023/03/01 06:09:25;;;;;;;20.20;8.80;;;;;;;-3.04;100.00;101196.08;107660;1277;25454;-72
2023/03/01 06:11:54;;;;;;;17.70;8.80;;;;;;;-2.94;100.00;101194.64;107614;1277;22555;-73
2023/03/01 06:14:23;;;;;;;19.90;8.50;;;;;;;-2.84;100.00;101190.05;107749;1277;22553;-73
2023/03/01 06:16:51;;;;;;;16.40;8.60;;;;;;;-2.75;100.00;101190.94;106718;1277;1002752;-73
2023/03/01 06:19:21;;;;;;;16.20;7.80;;;;;;;-2.69;100.00;101187.00;107822;1278;26731;-72
2023/03/01 06:21:49;;;;;;;16.20;7.90;;;;;;;-2.61;100.00;101190.07;107555;1272;25418;-74
2023/03/01 06:24:18;;;;;;;25.10;10.20;;;;;;;-2.53;100.00;101181.62;107016;1270;1003679;-74
2023/03/01 06:26:47;;;;;;;19.90;8.50;;;;;;;-2.42;100.00;101187.58;107771;1270;25281;-74
2023/03/01 06:29:15;;;;;;;17.30;7.80;;;;;;;-2.36;100.00;101190.33;107772;1272;24420;-74
2023/03/01 06:31:45;;;;;;;21.50;9.20;;;;;;;-2.33;100.00;101190.39;107788;1276;22817;-75
2023/03/01 06:34:14;;;;;;;19.30;7.70;;;;;;;-2.22;100.00;101195.98;107692;1272;22535;-73
2023/03/01 06:36:43;;;;;;;27.30;11.30;;;;;;;-2.11;100.00;101195.17;106937;1275;1003463;-75
2023/03/01 06:39:14;;;;;;;20.00;8.50;;;;;;;-2.01;100.00;101196.17;106942;1270;1003150;-73
2023/03/01 06:41:43;;;;;;;22.60;8.90;;;;;;;-1.93;100.00;101190.73;107680;1270;24329;-74
2023/03/01 06:44:12;;;;;;;26.30;9.50;;;;;;;-1.85;100.00;101188.11;107629;1271;24059;-74
2023/03/01 06:46:42;;;;;;;25.20;10.00;;;;;;;-1.74;100.00;101188.73;107169;1272;23356;-71
2023/03/01 06:49:11;;;;;;;26.30;10.40;;;;;;;-1.62;100.00;101181.32;107338;1271;26510;-71
2023/03/01 06:51:41;;;;;;;25.40;10.90;;;;;;;-1.46;100.00;101181.55;107478;1270;25434;-72
2023/03/01 06:54:10;;;;;;;32.70;12.10;;;;;;;-1.32;100.00;101177.21;107558;1278;23240;-71
2023/03/01 06:56:39;;;;;;;35.20;14.50;;;;;;;-1.22;100.00;101174.80;107124;1271;1002986;-73
2023/03/01 06:59:08;;;;;;;30.10;11.60;;;;;;;-1.10;100.00;101172.88;106924;1278;1002927;-70
2023/03/01 07:01:41;;;;;;;19.80;8.80;;;;;;;-1.00;100.00;101173.48;107617;1275;25313;-71
2023/03/01 07:04:10;;;;;;;19.70;8.50;;;;;;;-0.87;100.00;101178.37;107298;1272;25450;-72
2023/03/01 07:06:39;;;;;;;20.80;8.90;;;;;;;-0.76;100.00;101182.66;107349;1278;22520;-70
2023/03/01 07:09:09;;;;;;;20.20;9.30;;;;;;;-0.67;100.00;101176.05;107238;1270;26502;-71
2023/03/01 07:11:38;;;;;;;18.10;9.10;;;;;;;-0.50;100.00;101171.55;107751;1276;24201;-74
2023/03/01 07:14:15;;;;;;;21.70;9.50;;;;;;;-0.33;100.00;101171.62;107694;1276;25433;-76
2023/03/01 07:16:45;;;;;;;23.60;9.30;;;;;;;-0.26;100.00;101176.97;107595;1276;22541;-75
2023/03/01 07:19:17;;;;;;;19.40;9.00;;;;;;;-0.24;100.00;101175.80;107028;1269;1003530;-68
2023/03/01 07:21:47;;;;;;;14.70;7.00;;;;;;;-0.13;100.00;101179.00;107055;1273;25426;-69
2023/03/01 07:24:15;;;;;;;18.30;7.90;;;;;;;-0.01;100.00;101186.02;107336;1276;22900;-76
2023/03/01 07:26:51;;;;;;;14.40;7.10;;;;;;;0.13;100.00;101194.94;107748;1276;25431;-76
2023/03/01 07:29:20;;;;;;;14.80;7.50;;;;;;;0.22;100.00;101191.85;107998;1261;22524;-76
2023/03/01 07:31:49;;;;;;;17.70;8.70;;;;;;;0.33;100.00;101190.92;108017;1276;22539;-76
2023/03/01 07:34:19;;;;;;;17.90;8.20;;;;;;;0.50;100.00;101195.38;107240;1275;25415;-69
2023/03/01 07:36:48;;;;;;;15.10;7.80;;;;;;;0.66;100.00;101197.94;107095;1270;24191;-69
2023/03/01 07:39:18;;;;;;;18.60;9.30;;;;;;;0.77;100.00;101208.37;107318;1275;22469;-70
2023/03/01 07:41:47;;;;;;;23.10;10.00;;;;;;;0.87;100.00;101210.55;107508;1270;24300;-70
2023/03/01 07:44:17;;;;;;;26.30;12.20;;;;;;;0.95;100.00;101216.83;107339;1273;24237;-68
2023/03/01 07:46:47;;;;;;;25.30;12.00;;;;;;;1.06;100.00;101213.81;107348;1273;25406;-69
2023/03/01 07:49:17;;;;;;;16.90;8.30;;;;;;;1.15;100.00;101215.96;107787;1273;25454;-76
2023/03/01 07:51:47;;;;;;;20.90;9.50;;;;;;;1.27;100.00;101217.65;107503;1269;25530;-75
2023/03/01 07:54:16;;;;;;;20.60;9.30;;;;;;;1.37;100.00;101215.20;107308;1270;22522;-74
2023/03/01 07:56:44;;;;;;;22.90;8.90;;;;;;;1.48;100.00;101212.94;107344;1276;22524;-72
2023/03/01 07:59:14;;;;;;;18.60;8.70;;;;;;;1.59;100.00;101212.21;106903;1274;1002594;-72
2023/03/01 08:01:43;;;;;;;19.90;9.30;;;;;;;1.81;100.00;101203.69;107062;1276;23858;-71
2023/03/01 08:04:11;;;;;;;21.10;8.90;;;;;;;1.95;100.00;101202.89;107184;1276;25638;-67
2023/03/01 08:06:41;;;;;;;22.50;10.30;;;;;;;1.95;100.00;101197.39;106425;1276;1003795;-68
2023/03/01 08:09:12;;;;;;;19.00;9.40;;;;;;;1.98;100.00;101194.36;106942;1276;24208;-68
2023/03/01 08:11:45;;;;;;;82.50;27.00;;;;;;;1.97;100.00;101195.11;107029;1276;26029;-69
2023/03/01 08:14:34;;;;;;;30.90;13.20;;;;;;;2.03;100.00;101199.41;106194;1269;1002586;-71
2023/03/01 08:17:03;;;;;;;17.40;8.70;;;;;;;2.13;100.00;101187.45;107229;1269;25488;-72
2023/03/01 08:19:34;;;;;;;18.80;9.30;;;;;;;2.12;100.00;101190.21;107392;1269;26516;-72
2023/03/01 08:22:03;;;;;;;16.10;7.70;;;;;;;2.16;100.00;101188.53;106547;1272;1003463;-72
2023/03/01 08:24:32;;;;;;;17.20;8.30;;;;;;;2.32;100.00;101188.16;107313;1270;23655;-71
2023/03/01 08:27:02;;;;;;;15.50;7.30;;;;;;;2.54;100.00;101181.52;107156;1275;25306;-73
2023/03/01 08:29:34;;;;;;;19.70;10.40;;;;;;;2.67;100.00;101184.49;107069;1269;25256;-73
2023/03/01 08:32:02;;;;;;;15.30;7.50;;;;;;;2.76;100.00;101187.30;107263;1272;22532;-73
2023/03/01 08:34:32;;;;;;;15.30;7.60;;;;;;;2.85;100.00;101179.84;107021;1272;25277;-70
2023/03/01 08:37:01;;;;;;;15.70;7.90;;;;;;;2.86;100.00;101176.73;106683;1276;25332;-70
2023/03/01 08:39:30;;;;;;;14.70;7.10;;;;;;;2.80;100.00;101177.26;106124;1276;1003431;-72
2023/03/01 08:42:00;;;;;;;15.30;7.00;;;;;;;2.87;100.00;101171.20;106944;1278;25275;-72
2023/03/01 08:44:29;;;;;;;13.60;7.10;;;;;;;3.00;100.00;101163.02;106496;1278;25435;-72
2023/03/01 08:46:59;;;;;;;16.50;7.30;;;;;;;3.19;100.00;101157.80;106853;1276;24193;-67
2023/03/01 08:49:28;;;;;;;15.40;7.00;;;;;;;3.28;100.00;101155.11;106360;1269;1003097;-71
2023/03/01 08:51:57;;;;;;;17.10;6.90;;;;;;;3.19;100.00;101163.48;106875;1276;23133;-70
2023/03/01 08:54:26;;;;;;;13.60;6.40;;;;;;;3.08;100.00;101168.45;106057;1276;1003322;-69
2023/03/01 08:56:55;;;;;;;14.00;6.80;;;;;;;3.12;100.00;101170.90;106955;1276;25501;-73
2023/03/01 08:59:25;;;;;;;14.90;7.00;;;;;;;3.24;100.00;101162.30;106853;1270;25402;-73
2023/03/01 09:01:53;;;;;;;15.70;6.80;;;;;;;3.45;100.00;101161.85;106792;1276;25313;-75
2023/03/01 09:04:22;;;;;;;13.10;6.90;;;;;;;3.40;100.00;101172.14;106162;1276;1002939;-75
2023/03/01 09:06:51;;;;;;;13.90;6.90;;;;;;;3.39;100.00;101181.11;106900;1270;24259;-74
2023/03/01 09:09:20;;;;;;;14.70;7.80;;;;;;;3.58;100.00;101172.80;106241;1276;1003888;-76
2023/03/01 09:11:49;;;;;;;13.60;6.20;;;;;;;3.83;100.00;101165.67;106727;1274;25453;-74
2023/03/01 09:14:18;;;;;;;17.30;8.00;;;;;;;3.97;100.00;101163.50;106712;1275;25610;-74
2023/03/01 09:16:48;;;;;;;12.50;7.00;;;;;;;3.98;100.00;101164.48;106802;1269;26495;-73
2023/03/01 09:19:18;;;;;;;15.90;7.90;;;;;;;3.93;100.00;101168.20;106959;1270;26592;-70
2023/03/01 09:21:55;;;;;;;14.30;6.80;;;;;;;3.84;100.00;101178.09;106955;1270;25334;-67
2023/03/01 09:24:25;;;;;;;15.00;6.80;;;;;;;3.73;100.00;101170.23;106116;1270;1003750;-68
2023/03/01 09:26:56;;;;;;;13.60;7.00;;;;;;;3.71;100.00;101160.88;106069;1269;1002888;-70
2023/03/01 09:29:25;;;;;;;13.40;6.80;;;;;;;3.79;100.00;101146.11;106847;1270;22524;-67
2023/03/01 09:31:54;;;;;;;14.80;6.20;;;;;;;3.89;100.00;101134.98;106790;1270;25358;-67
2023/03/01 09:34:24;;;;;;;10.80;5.40;;;;;;;3.98;100.00;101128.98;106718;1270;25284;-67
2023/03/01 09:36:53;;;;;;;11.10;5.90;;;;;;;4.04;100.00;101130.77;106743;1270;22537;-70
2023/03/01 09:39:22;;;;;;;15.90;7.10;;;;;;;4.04;100.00;101126.47;106555;1270;22521;-69
2023/03/01 09:42:04;;;;;;;12.30;6.40;;;;;;;4.10;100.00;101111.41;106809;1275;25036;-68
2023/03/01 09:45:00;;;;;;;11.80;6.30;;;;;;;4.27;100.00;101109.77;106842;1272;26644;-70
2023/03/01 09:47:31;;;;;;;13.10;6.20;;;;;;;4.37;100.00;101107.80;106963;1269;26607;-69
2023/03/01 09:50:16;;;;;;;11.40;6.30;;;;;;;4.32;100.00;101111.73;106861;1275;22532;-68
2023/03/01 09:53:06;;;;;;;10.90;6.10;;;;;;;4.21;100.00;101116.23;106939;1254;22775;-74
2023/03/01 09:55:46;;;;;;;12.00;6.00;;;;;;;4.15;100.00;101108.05;106833;1272;25350;-72
2023/03/01 09:58:30;;;;;;;15.60;6.90;;;;;;;4.10;100.00;101105.53;106944;1273;24256;-79
2023/03/01 10:01:16;;;;;;;13.30;6.20;;;;;;;4.22;100.00;101102.08;107145;1275;25515;-75
2023/03/01 10:04:11;;;;;;;14.20;6.90;;;;;;;4.42;100.00;101089.27;107511;1272;25430;-77
2023/03/01 10:06:55;;;;;;;12.60;6.50;;;;;;;4.76;100.00;101084.40;106075;1269;1003363;-74
2023/03/01 10:09:33;;;;;;;11.80;6.10;;;;;;;4.90;100.00;101077.71;107157;1276;25351;-78
2023/03/01 10:12:02;;;;;;;16.20;7.30;;;;;;;4.83;100.00;101078.42;106828;1276;25424;-70
2023/03/01 10:14:49;;;;;;;18.80;9.00;;;;;;;4.80;100.00;101081.13;106880;1275;25426;-79
2023/03/01 10:18:00;;;;;;;12.10;6.20;;;;;;;4.81;100.00;101067.08;106827;1254;24732;-75
2023/03/01 10:20:38;;;;;;;11.10;5.80;;;;;;;4.93;100.00;101059.42;106294;1278;25257;-76
2023/03/01 10:23:08;;;;;;;13.30;6.60;;;;;;;5.12;100.00;101060.03;105604;1281;1003829;-80
2023/03/01 10:25:38;;;;;;;16.20;6.90;;;;;;;5.32;100.00;101056.64;106703;1269;25245;-75
2023/03/01 10:28:17;;;;;;;12.00;6.80;;;;;;;5.49;100.00;101049.47;106823;1271;25355;-69
2023/03/01 10:30:52;;;;;;;15.20;8.00;;;;;;;5.67;100.00;101049.02;106945;1270;22519;-73
2023/03/01 10:33:31;;;;;;;16.10;7.70;;;;;;;5.71;100.00;101044.14;106950;1273;25465;-70
2023/03/01 10:36:01;;;;;;;16.00;7.10;;;;;;;5.76;100.00;101041.02;106842;1269;25909;-72
2023/03/01 10:38:32;;;;;;;16.80;6.90;;;;;;;5.86;100.00;101029.90;106700;1270;25422;-70
2023/03/01 10:41:06;;;;;;;15.60;7.10;;;;;;;5.83;100.00;101023.20;106653;1277;25514;-69
2023/03/01 10:43:50;;;;;;;14.00;6.90;;;;;;;5.72;100.00;101012.91;106857;1273;25378;-67
2023/03/01 10:46:39;;;;;;;;;;;;;;;5.51;100.00;101006.23;106853;1276;24225;-69
2023/03/01 10:49:22;;;;;;;14.30;6.80;;;;;;;5.38;100.00;100994.18;106841;1276;25385;-77
2023/03/01 10:51:52;;;;;;;15.40;6.70;;;;;;;5.35;100.00;100990.98;106854;1276;26742;-76
2023/03/01 10:54:24;;;;;;;16.60;7.90;;;;;;;5.33;100.00;100989.32;106864;1276;25341;-78
2023/03/01 10:56:55;;;;;;;17.40;7.40;;;;;;;5.30;100.00;100984.33;106808;1272;22658;-77
2023/03/01 10:59:37;;;;;;;17.90;8.20;;;;;;;5.48;100.00;100981.98;106654;1278;22541;-75
2023/03/01 11:02:09;;;;;;;17.20;8.20;;;;;;;5.63;100.00;100977.94;106799;1273;25360;-78
2023/03/01 11:05:02;;;;;;;19.90;8.70;;;;;;;5.78;100.00;100972.58;106749;1272;25418;-78
2023/03/01 11:07:32;;;;;;;16.90;7.90;;;;;;;5.75;100.00;100963.66;106049;1273;1003422;-76
2023/03/01 11:10:17;;;;;;;18.00;8.90;;;;;;;5.57;100.00;100957.36;106461;1279;23918;-76
2023/03/01 11:12:47;;;;;;;21.90;11.00;;;;;;;5.61;100.00;100950.24;106828;1273;25428;-78
2023/03/01 11:15:27;;;;;;;23.80;11.80;;;;;;;5.66;100.00;100942.70;106750;1275;22531;-71
2023/03/01 11:17:57;;;;;;;23.60;10.90;;;;;;;5.60;100.00;100936.35;106769;1275;25383;-69